sensor_id;sensor_type;location;lat;lon;timestamp;P1;durP1;ratioP1;P2;durP2;ratioP2
67187;SDS011;54117;53.532;49.426;2022-09-09T00:04:26;3.58;;;2.45;;
67187;SDS011;54117;53.532;49.426;2022-09-09T00:07:03;2.10;;;2.00;;
67187;SDS011;54117;53.532;49.426;2022-09-09T00:09:33;2.47;;;2.27;;
67187;SDS011;54117;53.532;49.426;2022-09-09T00:12:11;2.72;;;2.53;;
67187;SDS011;54117;53.532;49.426;2022-09-09T00:14:54;2.42;;;2.08;;
67187;SDS011;54117;53.532;49.426;2022-09-09T00:17:51;4.00;;;2.45;;
67187;SDS011;54117;53.532;49.426;2022-09-09T00:22:57;2.22;;;2.03;;
67187;SDS011;54117;53.532;49.426;2022-09-09T00:25:33;2.05;;;1.90;;
67187;SDS011;54117;53.532;49.426;2022-09-09T00:28:12;2.20;;;2.08;;
67187;SDS011;54117;53.532;49.426;2022-09-09T00:30:43;4.53;;;1.95;;
67187;SDS011;54117;53.532;49.426;2022-09-09T00:33:14;2.50;;;2.30;;
67187;SDS011;54117;53.532;49.426;2022-09-09T00:35:51;2.38;;;2.17;;
67187;SDS011;54117;53.532;49.426;2022-09-09T00:38:27;5.40;;;3.08;;
67187;SDS011;54117;53.532;49.426;2022-09-09T00:43:38;2.60;;;2.40;;
67187;SDS011;54117;53.532;49.426;2022-09-09T00:52:23;2.63;;;2.40;;
67187;SDS011;54117;53.532;49.426;2022-09-09T00:57:46;2.53;;;2.33;;
67187;SDS011;54117;53.532;49.426;2022-09-09T01:03:03;2.25;;;2.05;;
67187;SDS011;54117;53.532;49.426;2022-09-09T01:11:05;2.17;;;1.98;;
67187;SDS011;54117;53.532;49.426;2022-09-09T01:13:47;4.57;;;2.08;;
67187;SDS011;54117;53.532;49.426;2022-09-09T01:16:25;3.03;;;2.58;;
67187;SDS011;54117;53.532;49.426;2022-09-09T01:18:54;4.30;;;2.85;;
67187;SDS011;54117;53.532;49.426;2022-09-09T01:26:51;3.10;;;2.47;;
67187;SDS011;54117;53.532;49.426;2022-09-09T01:29:22;2.85;;;2.65;;
67187;SDS011;54117;53.532;49.426;2022-09-09T01:31:53;2.67;;;2.45;;
67187;SDS011;54117;53.532;49.426;2022-09-09T01:34:25;3.92;;;2.78;;
67187;SDS011;54117;53.532;49.426;2022-09-09T01:37:06;5.20;;;3.13;;
67187;SDS011;54117;53.532;49.426;2022-09-09T01:39:36;4.13;;;2.80;;
67187;SDS011;54117;53.532;49.426;2022-09-09T01:42:05;3.13;;;2.83;;
67187;SDS011;54117;53.532;49.426;2022-09-09T01:44:34;3.00;;;2.70;;
67187;SDS011;54117;53.532;49.426;2022-09-09T01:47:02;3.42;;;2.50;;
67187;SDS011;54117;53.532;49.426;2022-09-09T01:49:28;4.50;;;3.30;;
67187;SDS011;54117;53.532;49.426;2022-09-09T01:51:55;3.17;;;2.70;;
67187;SDS011;54117;53.532;49.426;2022-09-09T01:54:23;4.20;;;2.97;;
67187;SDS011;54117;53.532;49.426;2022-09-09T01:59:38;3.97;;;3.47;;
67187;SDS011;54117;53.532;49.426;2022-09-09T02:04:45;7.93;;;4.10;;
67187;SDS011;54117;53.532;49.426;2022-09-09T02:09:49;8.13;;;4.13;;
67187;SDS011;54117;53.532;49.426;2022-09-09T02:12:23;8.15;;;4.45;;
67187;SDS011;54117;53.532;49.426;2022-09-09T02:14:52;8.90;;;4.78;;
67187;SDS011;54117;53.532;49.426;2022-09-09T02:17:31;10.77;;;5.22;;
67187;SDS011;54117;53.532;49.426;2022-09-09T02:20:05;10.43;;;5.33;;
67187;SDS011;54117;53.532;49.426;2022-09-09T02:25:05;11.73;;;5.30;;
67187;SDS011;54117;53.532;49.426;2022-09-09T02:27:33;8.20;;;4.80;;
67187;SDS011;54117;53.532;49.426;2022-09-09T02:30:01;11.02;;;4.90;;
67187;SDS011;54117;53.532;49.426;2022-09-09T02:32:29;6.65;;;4.45;;
67187;SDS011;54117;53.532;49.426;2022-09-09T02:35:00;6.75;;;4.88;;
67187;SDS011;54117;53.532;49.426;2022-09-09T02:37:40;12.68;;;5.82;;
67187;SDS011;54117;53.532;49.426;2022-09-09T02:40:08;8.15;;;4.70;;
67187;SDS011;54117;53.532;49.426;2022-09-09T02:42:40;9.65;;;4.35;;
67187;SDS011;54117;53.532;49.426;2022-09-09T02:45:07;9.10;;;4.32;;
67187;SDS011;54117;53.532;49.426;2022-09-09T02:47:39;7.65;;;4.60;;
67187;SDS011;54117;53.532;49.426;2022-09-09T02:55:10;4.90;;;4.00;;
67187;SDS011;54117;53.532;49.426;2022-09-09T02:57:43;5.80;;;3.35;;
67187;SDS011;54117;53.532;49.426;2022-09-09T03:00:13;9.13;;;4.28;;
67187;SDS011;54117;53.532;49.426;2022-09-09T03:02:40;7.35;;;4.40;;
67187;SDS011;54117;53.532;49.426;2022-09-09T03:05:07;4.90;;;3.92;;
67187;SDS011;54117;53.532;49.426;2022-09-09T03:07:34;3.80;;;3.50;;
67187;SDS011;54117;53.532;49.426;2022-09-09T03:10:00;4.78;;;3.38;;
67187;SDS011;54117;53.532;49.426;2022-09-09T03:12:27;4.05;;;3.22;;
67187;SDS011;54117;53.532;49.426;2022-09-09T03:14:53;5.10;;;3.67;;
67187;SDS011;54117;53.532;49.426;2022-09-09T03:17:19;7.82;;;3.67;;
67187;SDS011;54117;53.532;49.426;2022-09-09T03:19:46;6.68;;;3.80;;
67187;SDS011;54117;53.532;49.426;2022-09-09T03:22:14;5.97;;;3.72;;
67187;SDS011;54117;53.532;49.426;2022-09-09T03:24:41;10.38;;;3.72;;
67187;SDS011;54117;53.532;49.426;2022-09-09T03:27:07;4.97;;;4.10;;
67187;SDS011;54117;53.532;49.426;2022-09-09T03:29:33;6.00;;;4.57;;
67187;SDS011;54117;53.532;49.426;2022-09-09T03:31:59;5.72;;;4.05;;
67187;SDS011;54117;53.532;49.426;2022-09-09T03:34:26;7.60;;;4.60;;
67187;SDS011;54117;53.532;49.426;2022-09-09T03:36:52;7.07;;;4.78;;
67187;SDS011;54117;53.532;49.426;2022-09-09T03:39:18;7.72;;;5.28;;
67187;SDS011;54117;53.532;49.426;2022-09-09T03:41:45;6.93;;;4.72;;
67187;SDS011;54117;53.532;49.426;2022-09-09T03:44:13;6.18;;;4.38;;
67187;SDS011;54117;53.532;49.426;2022-09-09T03:46:40;7.72;;;4.05;;
67187;SDS011;54117;53.532;49.426;2022-09-09T03:49:07;6.68;;;4.55;;
67187;SDS011;54117;53.532;49.426;2022-09-09T03:51:39;5.82;;;3.78;;
67187;SDS011;54117;53.532;49.426;2022-09-09T03:54:06;6.72;;;5.10;;
67187;SDS011;54117;53.532;49.426;2022-09-09T03:56:36;7.03;;;4.63;;
67187;SDS011;54117;53.532;49.426;2022-09-09T03:59:03;7.10;;;4.93;;
67187;SDS011;54117;53.532;49.426;2022-09-09T04:01:29;9.93;;;4.40;;
67187;SDS011;54117;53.532;49.426;2022-09-09T04:04:02;5.57;;;4.13;;
67187;SDS011;54117;53.532;49.426;2022-09-09T04:06:30;6.82;;;4.65;;
67187;SDS011;54117;53.532;49.426;2022-09-09T04:08:56;5.90;;;4.18;;
67187;SDS011;54117;53.532;49.426;2022-09-09T04:11:22;4.18;;;3.50;;
67187;SDS011;54117;53.532;49.426;2022-09-09T04:13:49;5.55;;;3.80;;
67187;SDS011;54117;53.532;49.426;2022-09-09T04:16:16;4.93;;;4.00;;
67187;SDS011;54117;53.532;49.426;2022-09-09T04:18:42;5.15;;;4.00;;
67187;SDS011;54117;53.532;49.426;2022-09-09T04:21:08;6.93;;;4.55;;
67187;SDS011;54117;53.532;49.426;2022-09-09T04:23:35;9.68;;;4.82;;
67187;SDS011;54117;53.532;49.426;2022-09-09T04:26:02;5.47;;;3.75;;
67187;SDS011;54117;53.532;49.426;2022-09-09T04:28:30;4.25;;;3.40;;
67187;SDS011;54117;53.532;49.426;2022-09-09T04:31:06;5.57;;;4.00;;
67187;SDS011;54117;53.532;49.426;2022-09-09T04:33:34;5.18;;;3.88;;
67187;SDS011;54117;53.532;49.426;2022-09-09T04:36:01;7.10;;;3.65;;
67187;SDS011;54117;53.532;49.426;2022-09-09T04:38:27;4.95;;;3.38;;
67187;SDS011;54117;53.532;49.426;2022-09-09T04:40:54;6.03;;;3.47;;
67187;SDS011;54117;53.532;49.426;2022-09-09T04:43:21;4.80;;;2.83;;
67187;SDS011;54117;53.532;49.426;2022-09-09T04:45:48;4.13;;;3.00;;
67187;SDS011;54117;53.532;49.426;2022-09-09T04:48:19;3.20;;;2.72;;
67187;SDS011;54117;53.532;49.426;2022-09-09T04:50:59;5.63;;;2.50;;
67187;SDS011;54117;53.532;49.426;2022-09-09T04:53:28;4.68;;;2.63;;
67187;SDS011;54117;53.532;49.426;2022-09-09T04:56:01;3.40;;;2.38;;
67187;SDS011;54117;53.532;49.426;2022-09-09T04:58:27;4.45;;;2.58;;
67187;SDS011;54117;53.532;49.426;2022-09-09T05:00:54;3.88;;;3.03;;
67187;SDS011;54117;53.532;49.426;2022-09-09T05:03:20;3.40;;;2.67;;
67187;SDS011;54117;53.532;49.426;2022-09-09T05:05:46;3.05;;;2.70;;
67187;SDS011;54117;53.532;49.426;2022-09-09T05:08:12;2.88;;;2.60;;
67187;SDS011;54117;53.532;49.426;2022-09-09T05:10:57;3.42;;;2.35;;
67187;SDS011;54117;53.532;49.426;2022-09-09T05:13:33;4.82;;;2.17;;
67187;SDS011;54117;53.532;49.426;2022-09-09T05:16:08;5.68;;;2.55;;
67187;SDS011;54117;53.532;49.426;2022-09-09T05:18:37;3.75;;;2.50;;
67187;SDS011;54117;53.532;49.426;2022-09-09T05:21:04;2.35;;;2.20;;
67187;SDS011;54117;53.532;49.426;2022-09-09T05:23:32;3.60;;;2.42;;
67187;SDS011;54117;53.532;49.426;2022-09-09T05:26:02;8.85;;;2.60;;
67187;SDS011;54117;53.532;49.426;2022-09-09T05:28:29;3.38;;;2.55;;
67187;SDS011;54117;53.532;49.426;2022-09-09T05:30:56;4.20;;;2.63;;
67187;SDS011;54117;53.532;49.426;2022-09-09T05:33:24;2.90;;;2.10;;
67187;SDS011;54117;53.532;49.426;2022-09-09T05:35:58;1.92;;;1.83;;
67187;SDS011;54117;53.532;49.426;2022-09-09T05:38:25;3.53;;;1.80;;
67187;SDS011;54117;53.532;49.426;2022-09-09T05:40:52;2.85;;;1.63;;
67187;SDS011;54117;53.532;49.426;2022-09-09T05:43:19;1.92;;;1.55;;
67187;SDS011;54117;53.532;49.426;2022-09-09T05:45:46;2.90;;;1.88;;
67187;SDS011;54117;53.532;49.426;2022-09-09T05:48:16;2.75;;;1.90;;
67187;SDS011;54117;53.532;49.426;2022-09-09T05:50:43;2.15;;;1.70;;
67187;SDS011;54117;53.532;49.426;2022-09-09T05:53:10;1.83;;;1.60;;
67187;SDS011;54117;53.532;49.426;2022-09-09T05:55:37;3.40;;;2.10;;
67187;SDS011;54117;53.532;49.426;2022-09-09T05:58:03;4.43;;;1.83;;
67187;SDS011;54117;53.532;49.426;2022-09-09T06:00:29;5.20;;;1.90;;
67187;SDS011;54117;53.532;49.426;2022-09-09T06:02:57;3.55;;;1.85;;
67187;SDS011;54117;53.532;49.426;2022-09-09T06:05:23;3.80;;;1.65;;
67187;SDS011;54117;53.532;49.426;2022-09-09T06:07:53;2.83;;;2.13;;
67187;SDS011;54117;53.532;49.426;2022-09-09T06:10:19;4.78;;;2.63;;
67187;SDS011;54117;53.532;49.426;2022-09-09T06:12:45;3.40;;;1.95;;
67187;SDS011;54117;53.532;49.426;2022-09-09T06:15:12;4.20;;;1.67;;
67187;SDS011;54117;53.532;49.426;2022-09-09T06:17:38;2.42;;;1.65;;
67187;SDS011;54117;53.532;49.426;2022-09-09T06:20:05;2.40;;;1.63;;
67187;SDS011;54117;53.532;49.426;2022-09-09T06:22:31;1.73;;;1.42;;
67187;SDS011;54117;53.532;49.426;2022-09-09T06:24:58;1.40;;;1.02;;
67187;SDS011;54117;53.532;49.426;2022-09-09T06:27:26;2.00;;;0.70;;
67187;SDS011;54117;53.532;49.426;2022-09-09T06:29:53;7.07;;;1.15;;
67187;SDS011;54117;53.532;49.426;2022-09-09T06:32:22;1.77;;;1.60;;
67187;SDS011;54117;53.532;49.426;2022-09-09T06:34:49;1.95;;;1.10;;
67187;SDS011;54117;53.532;49.426;2022-09-09T06:37:15;0.90;;;0.75;;
67187;SDS011;54117;53.532;49.426;2022-09-09T06:39:45;3.28;;;1.00;;
67187;SDS011;54117;53.532;49.426;2022-09-09T06:42:13;3.40;;;0.70;;
67187;SDS011;54117;53.532;49.426;2022-09-09T06:44:41;2.20;;;1.33;;
67187;SDS011;54117;53.532;49.426;2022-09-09T06:47:07;4.20;;;1.55;;
67187;SDS011;54117;53.532;49.426;2022-09-09T06:49:34;2.67;;;2.22;;
67187;SDS011;54117;53.532;49.426;2022-09-09T06:52:01;1.50;;;1.33;;
67187;SDS011;54117;53.532;49.426;2022-09-09T06:54:27;3.33;;;1.50;;
67187;SDS011;54117;53.532;49.426;2022-09-09T06:56:59;4.25;;;1.10;;
67187;SDS011;54117;53.532;49.426;2022-09-09T06:59:26;2.58;;;1.30;;
67187;SDS011;54117;53.532;49.426;2022-09-09T07:01:53;3.25;;;0.98;;
67187;SDS011;54117;53.532;49.426;2022-09-09T07:04:20;2.30;;;1.10;;
67187;SDS011;54117;53.532;49.426;2022-09-09T07:06:46;3.67;;;1.35;;
67187;SDS011;54117;53.532;49.426;2022-09-09T07:09:13;4.00;;;1.10;;
67187;SDS011;54117;53.532;49.426;2022-09-09T07:11:42;5.70;;;1.50;;
67187;SDS011;54117;53.532;49.426;2022-09-09T07:14:13;4.78;;;1.40;;
67187;SDS011;54117;53.532;49.426;2022-09-09T07:16:41;4.15;;;1.27;;
67187;SDS011;54117;53.532;49.426;2022-09-09T07:19:08;1.95;;;1.10;;
67187;SDS011;54117;53.532;49.426;2022-09-09T07:21:35;2.15;;;0.77;;
67187;SDS011;54117;53.532;49.426;2022-09-09T07:24:06;4.07;;;0.80;;
67187;SDS011;54117;53.532;49.426;2022-09-09T07:26:58;2.38;;;1.00;;
67187;SDS011;54117;53.532;49.426;2022-09-09T07:29:25;4.45;;;0.70;;
67187;SDS011;54117;53.532;49.426;2022-09-09T07:31:51;2.70;;;0.50;;
67187;SDS011;54117;53.532;49.426;2022-09-09T07:34:17;2.58;;;0.55;;
67187;SDS011;54117;53.532;49.426;2022-09-09T07:36:44;2.67;;;0.98;;
67187;SDS011;54117;53.532;49.426;2022-09-09T07:39:12;0.98;;;0.60;;
67187;SDS011;54117;53.532;49.426;2022-09-09T07:41:43;2.50;;;0.85;;
67187;SDS011;54117;53.532;49.426;2022-09-09T07:44:23;1.85;;;0.60;;
67187;SDS011;54117;53.532;49.426;2022-09-09T07:46:52;0.98;;;0.60;;
67187;SDS011;54117;53.532;49.426;2022-09-09T07:49:19;0.82;;;0.60;;
67187;SDS011;54117;53.532;49.426;2022-09-09T07:51:46;0.82;;;0.80;;
67187;SDS011;54117;53.532;49.426;2022-09-09T07:54:14;1.92;;;0.70;;
67187;SDS011;54117;53.532;49.426;2022-09-09T07:56:42;0.77;;;0.77;;
67187;SDS011;54117;53.532;49.426;2022-09-09T07:59:09;0.50;;;0.50;;
67187;SDS011;54117;53.532;49.426;2022-09-09T08:01:39;2.28;;;0.50;;
67187;SDS011;54117;53.532;49.426;2022-09-09T08:04:14;1.52;;;0.38;;
67187;SDS011;54117;53.532;49.426;2022-09-09T08:06:45;1.90;;;0.60;;
67187;SDS011;54117;53.532;49.426;2022-09-09T08:09:18;0.40;;;0.40;;
67187;SDS011;54117;53.532;49.426;2022-09-09T08:11:45;3.33;;;1.90;;
67187;SDS011;54117;53.532;49.426;2022-09-09T08:14:12;5.00;;;2.17;;
67187;SDS011;54117;53.532;49.426;2022-09-09T08:16:41;3.35;;;1.33;;
67187;SDS011;54117;53.532;49.426;2022-09-09T08:19:10;4.03;;;1.38;;
67187;SDS011;54117;53.532;49.426;2022-09-09T08:21:37;2.00;;;0.40;;
67187;SDS011;54117;53.532;49.426;2022-09-09T08:24:05;7.13;;;0.70;;
67187;SDS011;54117;53.532;49.426;2022-09-09T08:26:34;1.33;;;0.73;;
67187;SDS011;54117;53.532;49.426;2022-09-09T08:29:03;2.95;;;0.93;;
67187;SDS011;54117;53.532;49.426;2022-09-09T08:33:58;2.80;;;0.80;;
67187;SDS011;54117;53.532;49.426;2022-09-09T08:36:26;0.88;;;0.60;;
67187;SDS011;54117;53.532;49.426;2022-09-09T08:38:55;0.50;;;0.40;;
67187;SDS011;54117;53.532;49.426;2022-09-09T08:47:33;1.05;;;0.40;;
67187;SDS011;54117;53.532;49.426;2022-09-09T08:58:15;0.20;;;0.10;;
67187;SDS011;54117;53.532;49.426;2022-09-09T09:03:30;6.65;;;0.50;;
67187;SDS011;54117;53.532;49.426;2022-09-09T09:06:19;0.45;;;0.45;;
67187;SDS011;54117;53.532;49.426;2022-09-09T09:11:47;0.57;;;0.47;;
67187;SDS011;54117;53.532;49.426;2022-09-09T09:19:21;0.20;;;0.20;;
67187;SDS011;54117;53.532;49.426;2022-09-09T09:21:53;0.98;;;0.65;;
67187;SDS011;54117;53.532;49.426;2022-09-09T09:24:44;1.95;;;1.08;;
67187;SDS011;54117;53.532;49.426;2022-09-09T09:27:33;0.43;;;0.43;;
67187;SDS011;54117;53.532;49.426;2022-09-09T09:30:14;1.08;;;0.52;;
67187;SDS011;54117;53.532;49.426;2022-09-09T09:33:00;0.98;;;0.50;;
67187;SDS011;54117;53.532;49.426;2022-09-09T09:35:30;1.08;;;0.52;;
67187;SDS011;54117;53.532;49.426;2022-09-09T09:37:57;0.40;;;0.20;;
67187;SDS011;54117;53.532;49.426;2022-09-09T09:40:26;3.28;;;1.88;;
67187;SDS011;54117;53.532;49.426;2022-09-09T09:43:02;5.60;;;3.55;;
67187;SDS011;54117;53.532;49.426;2022-09-09T09:45:40;4.75;;;1.42;;
67187;SDS011;54117;53.532;49.426;2022-09-09T09:48:10;2.15;;;0.35;;
67187;SDS011;54117;53.532;49.426;2022-09-09T09:50:51;4.60;;;1.10;;
67187;SDS011;54117;53.532;49.426;2022-09-09T09:53:29;1.40;;;1.08;;
67187;SDS011;54117;53.532;49.426;2022-09-09T09:56:04;1.95;;;1.20;;
67187;SDS011;54117;53.532;49.426;2022-09-09T10:01:23;5.50;;;3.13;;
67187;SDS011;54117;53.532;49.426;2022-09-09T10:04:18;6.38;;;2.67;;
67187;SDS011;54117;53.532;49.426;2022-09-09T10:06:49;1.50;;;1.13;;
67187;SDS011;54117;53.532;49.426;2022-09-09T10:26:00;0.50;;;0.30;;
67187;SDS011;54117;53.532;49.426;2022-09-09T10:28:42;2.45;;;0.88;;
67187;SDS011;54117;53.532;49.426;2022-09-09T10:31:36;1.45;;;0.40;;
67187;SDS011;54117;53.532;49.426;2022-09-09T10:41:02;1.15;;;0.60;;
67187;SDS011;54117;53.532;49.426;2022-09-09T10:43:25;0.82;;;0.40;;
67187;SDS011;54117;53.532;49.426;2022-09-09T10:48:37;3.72;;;0.50;;
67187;SDS011;54117;53.532;49.426;2022-09-09T10:56:58;5.10;;;2.28;;
67187;SDS011;54117;53.532;49.426;2022-09-09T10:59:38;1.20;;;0.68;;
67187;SDS011;54117;53.532;49.426;2022-09-09T11:02:20;1.88;;;1.55;;
67187;SDS011;54117;53.532;49.426;2022-09-09T11:07:41;12.30;;;6.28;;
67187;SDS011;54117;53.532;49.426;2022-09-09T11:10:18;6.60;;;4.45;;
67187;SDS011;54117;53.532;49.426;2022-09-09T11:13:11;1.63;;;1.08;;
67187;SDS011;54117;53.532;49.426;2022-09-09T11:21:47;3.33;;;0.60;;
67187;SDS011;54117;53.532;49.426;2022-09-09T11:24:20;8.82;;;3.55;;
67187;SDS011;54117;53.532;49.426;2022-09-09T11:38:15;3.10;;;2.08;;
67187;SDS011;54117;53.532;49.426;2022-09-09T11:40:43;5.15;;;2.90;;
67187;SDS011;54117;53.532;49.426;2022-09-09T11:43:12;3.67;;;0.95;;
67187;SDS011;54117;53.532;49.426;2022-09-09T11:45:43;1.03;;;0.90;;
67187;SDS011;54117;53.532;49.426;2022-09-09T11:51:09;3.15;;;0.90;;
67187;SDS011;54117;53.532;49.426;2022-09-09T11:53:47;1.13;;;0.93;;
67187;SDS011;54117;53.532;49.426;2022-09-09T11:56:24;1.73;;;1.10;;
67187;SDS011;54117;53.532;49.426;2022-09-09T11:59:22;2.08;;;1.20;;
67187;SDS011;54117;53.532;49.426;2022-09-09T12:01:50;1.70;;;1.00;;
67187;SDS011;54117;53.532;49.426;2022-09-09T12:04:36;3.65;;;1.75;;
67187;SDS011;54117;53.532;49.426;2022-09-09T12:09:47;3.92;;;2.60;;
67187;SDS011;54117;53.532;49.426;2022-09-09T12:12:30;1.83;;;1.10;;
67187;SDS011;54117;53.532;49.426;2022-09-09T12:18:00;4.38;;;2.35;;
67187;SDS011;54117;53.532;49.426;2022-09-09T12:30:44;2.30;;;0.98;;
67187;SDS011;54117;53.532;49.426;2022-09-09T12:33:23;3.50;;;0.88;;
67187;SDS011;54117;53.532;49.426;2022-09-09T12:35:54;4.43;;;1.55;;
67187;SDS011;54117;53.532;49.426;2022-09-09T12:38:26;6.55;;;2.10;;
67187;SDS011;54117;53.532;49.426;2022-09-09T12:41:01;5.28;;;2.53;;
67187;SDS011;54117;53.532;49.426;2022-09-09T12:43:28;2.90;;;1.90;;
67187;SDS011;54117;53.532;49.426;2022-09-09T15:57:24;1.75;;;1.50;;
67187;SDS011;54117;53.532;49.426;2022-09-09T15:59:56;2.83;;;2.22;;
67187;SDS011;54117;53.532;49.426;2022-09-09T16:02:28;1.95;;;1.67;;
67187;SDS011;54117;53.532;49.426;2022-09-09T16:04:59;5.22;;;3.47;;
67187;SDS011;54117;53.532;49.426;2022-09-09T16:07:31;2.50;;;2.30;;
67187;SDS011;54117;53.532;49.426;2022-09-09T16:10:09;6.85;;;1.30;;
67187;SDS011;54117;53.532;49.426;2022-09-09T16:12:42;1.08;;;0.93;;
67187;SDS011;54117;53.532;49.426;2022-09-09T16:15:13;1.58;;;1.48;;
67187;SDS011;54117;53.532;49.426;2022-09-09T16:17:45;3.83;;;1.50;;
67187;SDS011;54117;53.532;49.426;2022-09-09T16:20:17;4.50;;;0.90;;
67187;SDS011;54117;53.532;49.426;2022-09-09T16:22:49;3.05;;;0.80;;
67187;SDS011;54117;53.532;49.426;2022-09-09T16:25:22;1.10;;;1.00;;
67187;SDS011;54117;53.532;49.426;2022-09-09T16:27:54;1.88;;;1.42;;
67187;SDS011;54117;53.532;49.426;2022-09-09T16:30:25;2.22;;;1.65;;
67187;SDS011;54117;53.532;49.426;2022-09-09T16:32:57;0.90;;;0.80;;
67187;SDS011;54117;53.532;49.426;2022-09-09T16:35:31;0.38;;;0.38;;
67187;SDS011;54117;53.532;49.426;2022-09-09T16:38:11;0.93;;;0.93;;
67187;SDS011;54117;53.532;49.426;2022-09-09T16:40:43;0.38;;;0.38;;
67187;SDS011;54117;53.532;49.426;2022-09-09T16:43:18;0.70;;;0.70;;
67187;SDS011;54117;53.532;49.426;2022-09-09T16:45:51;0.80;;;0.80;;
67187;SDS011;54117;53.532;49.426;2022-09-09T16:48:23;2.40;;;0.80;;
67187;SDS011;54117;53.532;49.426;2022-09-09T16:51:05;1.27;;;0.90;;
67187;SDS011;54117;53.532;49.426;2022-09-09T16:53:39;1.80;;;0.40;;
67187;SDS011;54117;53.532;49.426;2022-09-09T16:56:14;0.77;;;0.73;;
67187;SDS011;54117;53.532;49.426;2022-09-09T16:59:01;0.38;;;0.28;;
67187;SDS011;54117;53.532;49.426;2022-09-09T17:01:38;0.55;;;0.50;;
67187;SDS011;54117;53.532;49.426;2022-09-09T17:04:15;0.52;;;0.50;;
67187;SDS011;54117;53.532;49.426;2022-09-09T17:06:53;2.15;;;0.73;;
67187;SDS011;54117;53.532;49.426;2022-09-09T17:09:26;0.80;;;0.50;;
67187;SDS011;54117;53.532;49.426;2022-09-09T17:12:02;2.50;;;0.55;;
67187;SDS011;54117;53.532;49.426;2022-09-09T17:14:33;2.38;;;0.90;;
67187;SDS011;54117;53.532;49.426;2022-09-09T17:17:05;0.98;;;0.60;;
67187;SDS011;54117;53.532;49.426;2022-09-09T17:19:38;1.88;;;0.45;;
67187;SDS011;54117;53.532;49.426;2022-09-09T17:22:10;0.70;;;0.28;;
67187;SDS011;54117;53.532;49.426;2022-09-09T17:24:43;0.93;;;0.40;;
67187;SDS011;54117;53.532;49.426;2022-09-09T17:27:16;1.20;;;0.50;;
67187;SDS011;54117;53.532;49.426;2022-09-09T17:29:48;1.17;;;0.45;;
67187;SDS011;54117;53.532;49.426;2022-09-09T17:32:20;0.30;;;0.30;;
67187;SDS011;54117;53.532;49.426;2022-09-09T17:34:52;0.38;;;0.38;;
67187;SDS011;54117;53.532;49.426;2022-09-09T17:37:23;0.30;;;0.30;;
67187;SDS011;54117;53.532;49.426;2022-09-09T17:39:55;0.40;;;0.40;;
67187;SDS011;54117;53.532;49.426;2022-09-09T17:42:28;0.85;;;0.60;;
67187;SDS011;54117;53.532;49.426;2022-09-09T17:45:00;0.85;;;0.70;;
67187;SDS011;54117;53.532;49.426;2022-09-09T17:47:32;0.85;;;0.60;;
67187;SDS011;54117;53.532;49.426;2022-09-09T17:50:04;0.57;;;0.57;;
67187;SDS011;54117;53.532;49.426;2022-09-09T17:55:09;0.85;;;0.38;;
67187;SDS011;54117;53.532;49.426;2022-09-09T17:57:40;3.00;;;0.45;;
67187;SDS011;54117;53.532;49.426;2022-09-09T18:00:16;1.17;;;0.55;;
67187;SDS011;54117;53.532;49.426;2022-09-09T18:02:47;0.40;;;0.40;;
67187;SDS011;54117;53.532;49.426;2022-09-09T18:05:19;5.22;;;0.60;;
67187;SDS011;54117;53.532;49.426;2022-09-09T18:07:51;0.57;;;0.52;;
67187;SDS011;54117;53.532;49.426;2022-09-09T18:10:23;0.47;;;0.40;;
67187;SDS011;54117;53.532;49.426;2022-09-09T18:12:54;0.65;;;0.40;;
67187;SDS011;54117;53.532;49.426;2022-09-09T18:15:27;1.35;;;0.77;;
67187;SDS011;54117;53.532;49.426;2022-09-09T18:18:01;0.50;;;0.50;;
67187;SDS011;54117;53.532;49.426;2022-09-09T18:20:36;1.08;;;0.52;;
67187;SDS011;54117;53.532;49.426;2022-09-09T18:23:08;1.30;;;0.60;;
67187;SDS011;54117;53.532;49.426;2022-09-09T18:25:45;0.60;;;0.55;;
67187;SDS011;54117;53.532;49.426;2022-09-09T18:28:16;1.42;;;0.70;;
67187;SDS011;54117;53.532;49.426;2022-09-09T18:30:50;1.90;;;0.40;;
67187;SDS011;54117;53.532;49.426;2022-09-09T18:33:23;0.40;;;0.40;;
67187;SDS011;54117;53.532;49.426;2022-09-09T18:35:54;1.80;;;0.70;;
67187;SDS011;54117;53.532;49.426;2022-09-09T18:38:26;0.45;;;0.45;;
67187;SDS011;54117;53.532;49.426;2022-09-09T18:40:58;2.15;;;0.70;;
67187;SDS011;54117;53.532;49.426;2022-09-09T18:43:29;0.60;;;0.50;;
67187;SDS011;54117;53.532;49.426;2022-09-09T18:46:03;0.90;;;0.47;;
67187;SDS011;54117;53.532;49.426;2022-09-09T18:48:35;1.37;;;0.40;;
67187;SDS011;54117;53.532;49.426;2022-09-09T18:51:08;0.45;;;0.40;;
67187;SDS011;54117;53.532;49.426;2022-09-09T18:56:12;0.73;;;0.40;;
67187;SDS011;54117;53.532;49.426;2022-09-09T18:58:43;0.40;;;0.40;;
67187;SDS011;54117;53.532;49.426;2022-09-09T19:01:15;1.27;;;0.52;;
67187;SDS011;54117;53.532;49.426;2022-09-09T19:03:47;0.38;;;0.25;;
67187;SDS011;54117;53.532;49.426;2022-09-09T19:06:20;0.60;;;0.60;;
67187;SDS011;54117;53.532;49.426;2022-09-09T19:08:55;0.40;;;0.40;;
67187;SDS011;54117;53.532;49.426;2022-09-09T19:11:28;0.40;;;0.30;;
67187;SDS011;54117;53.532;49.426;2022-09-09T19:14:01;2.15;;;0.32;;
67187;SDS011;54117;53.532;49.426;2022-09-09T19:16:34;0.40;;;0.40;;
67187;SDS011;54117;53.532;49.426;2022-09-09T19:19:07;0.50;;;0.50;;
67187;SDS011;54117;53.532;49.426;2022-09-09T19:21:42;0.40;;;0.40;;
67187;SDS011;54117;53.532;49.426;2022-09-09T19:24:15;0.30;;;0.30;;
67187;SDS011;54117;53.532;49.426;2022-09-09T19:26:50;0.82;;;0.40;;
67187;SDS011;54117;53.532;49.426;2022-09-09T19:29:35;0.70;;;0.70;;
67187;SDS011;54117;53.532;49.426;2022-09-09T19:32:09;0.32;;;0.32;;
67187;SDS011;54117;53.532;49.426;2022-09-09T19:34:40;0.95;;;0.60;;
67187;SDS011;54117;53.532;49.426;2022-09-09T19:37:13;1.35;;;0.55;;
67187;SDS011;54117;53.532;49.426;2022-09-09T19:39:45;0.47;;;0.47;;
67187;SDS011;54117;53.532;49.426;2022-09-09T19:42:17;0.88;;;0.55;;
67187;SDS011;54117;53.532;49.426;2022-09-09T19:44:49;2.72;;;0.60;;
67187;SDS011;54117;53.532;49.426;2022-09-09T19:47:20;0.90;;;0.60;;
67187;SDS011;54117;53.532;49.426;2022-09-09T19:49:58;0.77;;;0.52;;
67187;SDS011;54117;53.532;49.426;2022-09-09T19:52:30;0.60;;;0.50;;
67187;SDS011;54117;53.532;49.426;2022-09-09T19:55:01;2.35;;;0.60;;
67187;SDS011;54117;53.532;49.426;2022-09-09T19:57:33;1.83;;;0.50;;
67187;SDS011;54117;53.532;49.426;2022-09-09T20:00:05;0.57;;;0.50;;
67187;SDS011;54117;53.532;49.426;2022-09-09T20:05:10;1.02;;;0.93;;
67187;SDS011;54117;53.532;49.426;2022-09-09T20:07:43;2.50;;;0.47;;
67187;SDS011;54117;53.532;49.426;2022-09-09T20:10:15;0.50;;;0.50;;
67187;SDS011;54117;53.532;49.426;2022-09-09T20:12:46;3.08;;;1.92;;
67187;SDS011;54117;53.532;49.426;2022-09-09T20:15:18;2.13;;;1.35;;
67187;SDS011;54117;53.532;49.426;2022-09-09T20:17:49;3.58;;;1.58;;
67187;SDS011;54117;53.532;49.426;2022-09-09T20:20:20;1.92;;;1.05;;
67187;SDS011;54117;53.532;49.426;2022-09-09T20:22:52;0.50;;;0.50;;
67187;SDS011;54117;53.532;49.426;2022-09-09T20:25:23;3.30;;;0.60;;
67187;SDS011;54117;53.532;49.426;2022-09-09T20:27:55;1.15;;;0.50;;
67187;SDS011;54117;53.532;49.426;2022-09-09T20:30:26;0.65;;;0.45;;
67187;SDS011;54117;53.532;49.426;2022-09-09T20:32:58;0.75;;;0.40;;
67187;SDS011;54117;53.532;49.426;2022-09-09T20:35:29;0.40;;;0.40;;
67187;SDS011;54117;53.532;49.426;2022-09-09T20:38:02;0.40;;;0.40;;
67187;SDS011;54117;53.532;49.426;2022-09-09T20:40:37;0.80;;;0.60;;
67187;SDS011;54117;53.532;49.426;2022-09-09T20:43:11;0.50;;;0.50;;
67187;SDS011;54117;53.532;49.426;2022-09-09T20:45:42;0.38;;;0.35;;